Time;durP1;ratioP1;P1;durP2;ratioP2;P2;SDS_P1;SDS_P2;PMS_P1;PMS_P2;Temp;Humidity;BMP_temperature;BMP_pressure;BME280_temperature;BME280_humidity;BME280_pressure;Samples;Min_cycle;Max_cycle;Signal;HPM_P1;HPM_P2
2023/04/03 00:00:53;;;;;;;6.30;3.53;;;8.40;99.90;;;;;;5043902;28;20081;-67
2023/04/03 00:03:19;;;;;;;6.13;3.97;;;8.50;99.90;;;;;;5050329;28;20072;-67
2023/04/03 00:05:46;;;;;;;7.30;4.00;;;8.40;99.90;;;;;;5041303;28;20025;-67
2023/04/03 00:08:11;;;;;;;4.80;3.15;;;8.50;99.90;;;;;;5036370;28;20447;-66
2023/04/03 00:10:37;;;;;;;5.50;3.50;;;8.50;99.90;;;;;;5053002;28;20021;-66
2023/04/03 00:13:04;;;;;;;4.97;3.53;;;8.40;99.90;;;;;;5044354;28;20037;-66
2023/04/03 00:15:30;;;;;;;8.18;3.35;;;8.40;99.90;;;;;;5037100;28;20140;-66
2023/04/03 00:17:55;;;;;;;7.03;3.95;;;8.40;99.90;;;;;;5047154;28;20734;-65
2023/04/03 00:20:21;;;;;;;5.80;3.80;;;8.40;99.90;;;;;;5043039;28;20070;-66
2023/04/03 00:22:47;;;;;;;6.53;3.93;;;8.40;99.90;;;;;;5044309;28;20040;-66
2023/04/03 00:25:12;;;;;;;8.77;3.97;;;8.40;99.90;;;;;;5051755;28;20033;-67
2023/04/03 00:27:39;;;;;;;8.10;4.27;;;8.40;99.90;;;;;;5039306;28;20425;-66
2023/04/03 00:30:06;;;;;;;5.88;3.85;;;8.40;99.90;;;;;;5042212;28;20029;-65
2023/04/03 00:32:32;;;;;;;5.72;3.78;;;8.30;99.90;;;;;;5044240;28;20037;-67
2023/04/03 00:34:58;;;;;;;12.63;4.87;;;8.30;99.90;;;;;;5045759;28;20028;-66
2023/04/03 00:37:23;;;;;;;5.40;3.90;;;8.30;99.90;;;;;;5044990;28;20636;-65
2023/04/03 00:39:49;;;;;;;6.60;4.30;;;8.30;99.90;;;;;;5042510;28;20041;-66
2023/04/03 00:42:15;;;;;;;8.80;5.07;;;8.30;99.90;;;;;;5043680;28;20029;-65
2023/04/03 00:44:40;;;;;;;5.53;4.00;;;8.40;99.90;;;;;;5053438;28;20057;-64
2023/04/03 00:47:09;;;;;;;9.57;5.27;;;8.40;99.90;;;;;;5046020;28;20467;-65
2023/04/03 00:49:36;;;;;;;6.10;3.88;;;8.40;99.90;;;;;;5042121;28;20070;-64
2023/04/03 00:52:02;;;;;;;6.32;4.30;;;8.40;99.90;;;;;;5044982;28;20025;-65
2023/04/03 00:54:28;;;;;;;5.88;3.92;;;8.40;99.90;;;;;;5039857;28;20032;-65
2023/04/03 00:56:55;;;;;;;6.60;5.00;;;8.30;99.90;;;;;;5045589;28;20036;-65
2023/04/03 00:59:31;;;;;;;6.57;4.00;;;8.30;99.90;;;;;;5042977;28;20031;-65
2023/04/03 01:01:58;;;;;;;6.25;4.20;;;8.30;99.90;;;;;;5037178;28;20074;-65
2023/04/03 01:04:35;;;;;;;6.63;3.92;;;8.30;99.90;;;;;;5047423;28;20151;-65
2023/04/03 01:07:12;;;;;;;8.57;3.97;;;8.20;99.90;;;;;;5038061;28;20120;-66
2023/04/03 01:09:39;;;;;;;8.40;4.87;;;8.30;99.90;;;;;;5039060;28;20032;-67
2023/04/03 01:12:26;;;;;;;5.80;4.00;;;8.30;99.90;;;;;;5040973;28;20366;-67
2023/04/03 01:14:56;;;;;;;7.10;3.88;;;8.40;99.90;;;;;;5046877;28;20040;-66
2023/04/03 01:17:38;;;;;;;5.72;3.83;;;8.40;99.90;;;;;;5046733;28;20077;-67
2023/04/03 01:20:21;;;;;;;7.25;4.28;;;8.40;99.90;;;;;;5039258;28;20033;-67
2023/04/03 01:22:58;;;;;;;7.65;4.60;;;8.40;99.90;;;;;;5044865;28;20033;-67
2023/04/03 01:25:24;;;;;;;;;;;8.40;99.90;;;;;;5047032;28;20037;-66
2023/04/03 01:27:50;;;;;;;5.60;3.53;;;8.40;99.90;;;;;;5038992;28;19934;-67
2023/04/03 01:30:18;;;;;;;5.43;3.47;;;8.40;99.90;;;;;;5042590;28;20048;-67
2023/04/03 01:32:43;;;;;;;6.82;2.90;;;8.40;99.90;;;;;;5049204;28;20287;-66
2023/04/03 01:35:11;;;;;;;5.60;3.20;;;8.30;99.90;;;;;;5047122;28;20420;-66
2023/04/03 01:37:36;;;;;;;7.57;3.88;;;8.40;99.90;;;;;;5045933;28;20431;-66
2023/04/03 01:40:03;;;;;;;4.53;3.10;;;8.40;99.90;;;;;;5040366;28;20041;-65
2023/04/03 01:42:29;;;;;;;;;;;8.30;99.90;;;;;;5047544;28;20505;-66
2023/04/03 01:44:54;;;;;;;7.53;3.60;;;8.50;99.90;;;;;;5046923;28;19967;-65
2023/04/03 01:47:21;;;;;;;4.43;3.33;;;8.50;99.90;;;;;;5043287;28;20028;-65
2023/04/03 01:49:46;;;;;;;5.53;2.92;;;8.50;99.90;;;;;;5040891;28;20032;-65
2023/04/03 01:52:12;;;;;;;4.70;3.10;;;8.50;99.90;;;;;;5040463;28;20543;-65
2023/04/03 01:54:37;;;;;;;3.90;2.90;;;8.40;99.90;;;;;;5044552;28;20032;-65
2023/04/03 01:57:03;;;;;;;4.07;3.23;;;8.30;99.90;;;;;;5042874;28;20353;-65
2023/04/03 01:59:29;;;;;;;5.73;3.90;;;8.40;99.90;;;;;;5048561;28;20056;-66
2023/04/03 02:01:55;;;;;;;5.67;3.83;;;8.40;99.90;;;;;;5038031;28;20544;-66
2023/04/03 02:04:21;;;;;;;9.03;3.43;;;8.40;99.90;;;;;;5045719;28;20041;-66
2023/04/03 02:06:46;;;;;;;4.97;3.20;;;8.50;99.90;;;;;;5042410;28;20067;-66
2023/04/03 02:09:12;;;;;;;6.00;3.30;;;8.40;99.90;;;;;;5040832;28;20037;-65
2023/04/03 02:11:38;;;;;;;5.40;3.13;;;8.40;99.90;;;;;;5046027;28;20029;-65
2023/04/03 02:14:03;;;;;;;4.40;3.20;;;8.30;99.90;;;;;;5043478;28;20041;-66
2023/04/03 02:16:30;;;;;;;4.25;2.90;;;8.30;99.90;;;;;;5042538;28;20051;-66
2023/04/03 02:18:56;;;;;;;;;;;8.30;99.90;;;;;;5044262;28;20056;-65
2023/04/03 02:21:22;;;;;;;3.72;2.90;;;8.30;99.90;;;;;;5045889;28;19982;-66
2023/04/03 02:23:47;;;;;;;3.50;2.47;;;8.30;99.90;;;;;;5041508;28;20040;-64
2023/04/03 02:26:14;;;;;;;5.10;3.72;;;8.20;99.90;;;;;;5041098;28;20305;-66
2023/04/03 02:28:41;;;;;;;5.45;2.58;;;8.30;99.90;;;;;;5040672;28;20520;-65
2023/04/03 02:31:08;;;;;;;4.53;3.00;;;8.20;99.90;;;;;;5040952;28;20025;-66
2023/04/03 02:33:36;;;;;;;4.18;2.95;;;8.20;99.90;;;;;;5040075;28;20032;-64
2023/04/03 02:36:03;;;;;;;4.68;3.10;;;8.30;99.90;;;;;;5039255;28;20029;-65
2023/04/03 02:38:28;;;;;;;3.53;2.85;;;8.30;99.90;;;;;;5042352;28;20048;-65
2023/04/03 02:41:03;;;;;;;7.80;2.90;;;8.30;99.90;;;;;;5040672;28;20025;-66
2023/04/03 02:43:28;;;;;;;3.95;3.13;;;8.30;99.90;;;;;;5039020;28;20043;-66
2023/04/03 02:45:54;;;;;;;3.70;3.00;;;8.30;99.90;;;;;;5051853;28;20024;-65
2023/04/03 02:48:20;;;;;;;3.50;2.72;;;8.30;99.90;;;;;;5039742;28;20524;-65
2023/04/03 02:50:45;;;;;;;3.93;2.63;;;8.40;99.90;;;;;;5040835;28;20136;-65
2023/04/03 02:53:11;;;;;;;6.60;3.27;;;8.40;99.90;;;;;;5032374;28;20123;-64
2023/04/03 02:55:36;;;;;;;3.67;2.93;;;8.40;99.90;;;;;;5050387;28;20025;-65
2023/04/03 02:58:03;;;;;;;4.83;2.97;;;8.40;99.90;;;;;;5039017;28;20021;-64
2023/04/03 03:00:29;;;;;;;4.55;3.00;;;8.40;99.90;;;;;;5042920;28;20259;-65
2023/04/03 03:02:55;;;;;;;4.90;3.38;;;8.40;99.90;;;;;;5041014;28;20013;-64
2023/04/03 03:05:21;;;;;;;5.03;3.20;;;8.40;99.90;;;;;;5049042;28;20048;-65
2023/04/03 03:07:47;;;;;;;;;;;8.30;99.90;;;;;;5045939;28;20032;-64
2023/04/03 03:10:13;;;;;;;5.63;2.78;;;8.30;99.90;;;;;;5043734;28;19931;-64
2023/04/03 03:12:38;;;;;;;4.07;3.20;;;8.40;99.90;;;;;;5043047;28;20025;-66
2023/04/03 03:15:04;;;;;;;3.37;2.73;;;8.40;99.90;;;;;;5039986;28;20032;-66
2023/04/03 03:17:30;;;;;;;4.70;3.30;;;8.40;99.90;;;;;;5041558;28;20025;-66
2023/04/03 03:19:55;;;;;;;4.87;3.13;;;8.40;99.90;;;;;;5046509;28;20028;-66
2023/04/03 03:22:21;;;;;;;6.83;3.57;;;8.40;99.90;;;;;;5039766;28;20091;-66
2023/04/03 03:24:46;;;;;;;6.57;3.57;;;8.40;99.90;;;;;;5046851;28;20066;-65
2023/04/03 03:27:12;;;;;;;5.93;3.57;;;8.40;99.90;;;;;;5041855;28;20067;-65
2023/04/03 03:29:38;;;;;;;7.03;4.07;;;8.30;99.90;;;;;;5045275;28;20433;-64
2023/04/03 03:32:04;;;;;;;5.07;3.67;;;8.40;99.90;;;;;;5056396;28;20033;-67
2023/04/03 03:34:30;;;;;;;7.28;4.32;;;8.30;99.90;;;;;;5048459;28;20034;-67
2023/04/03 03:36:55;;;;;;;4.53;3.40;;;8.30;99.90;;;;;;5041004;28;20042;-65
2023/04/03 03:39:21;;;;;;;5.63;3.67;;;8.30;99.90;;;;;;5043557;28;20509;-66
2023/04/03 03:41:47;;;;;;;9.20;4.30;;;8.30;99.90;;;;;;5046860;28;20067;-65
2023/04/03 03:44:12;;;;;;;4.78;3.88;;;8.20;99.90;;;;;;5051811;28;20028;-65
2023/04/03 03:46:38;;;;;;;4.53;3.57;;;8.20;99.90;;;;;;5055887;28;20028;-66
2023/04/03 03:49:04;;;;;;;4.60;3.83;;;8.20;99.90;;;;;;5045228;28;20032;-66
2023/04/03 03:51:29;;;;;;;7.10;5.23;;;8.30;99.90;;;;;;5040867;28;20044;-66
2023/04/03 03:53:55;;;;;;;8.88;4.80;;;8.30;99.90;;;;;;5044607;28;20037;-66
2023/04/03 03:56:21;;;;;;;5.73;4.37;;;8.20;99.90;;;;;;5044007;28;20421;-65
2023/04/03 03:58:47;;;;;;;4.28;3.75;;;8.20;99.90;;;;;;5046801;28;20388;-65
2023/04/03 04:01:13;;;;;;;5.53;4.07;;;8.10;99.90;;;;;;5041353;28;20033;-66
2023/04/03 04:03:38;;;;;;;8.03;3.90;;;8.20;99.90;;;;;;5047926;28;20662;-67
2023/04/03 04:06:04;;;;;;;8.50;3.57;;;8.30;99.90;;;;;;5046503;28;20036;-66
2023/04/03 04:08:30;;;;;;;8.10;3.43;;;8.20;99.90;;;;;;5043195;28;20021;-66
2023/04/03 04:10:55;;;;;;;4.47;3.27;;;8.10;99.90;;;;;;5047790;28;20023;-66
2023/04/03 04:13:21;;;;;;;6.33;4.20;;;8.10;99.90;;;;;;5043459;28;20480;-65
2023/04/03 04:15:46;;;;;;;4.33;3.77;;;8.10;99.90;;;;;;5041838;28;20439;-66
2023/04/03 04:18:12;;;;;;;6.83;4.10;;;8.10;99.90;;;;;;5045655;28;20115;-66
2023/04/03 04:20:37;;;;;;;4.60;3.83;;;8.20;99.90;;;;;;5046616;28;20036;-66
2023/04/03 04:23:03;;;;;;;7.27;3.63;;;8.10;99.90;;;;;;5038346;28;20037;-67
2023/04/03 04:25:29;;;;;;;5.90;3.83;;;8.10;99.90;;;;;;5041433;28;20042;-67
2023/04/03 04:27:54;;;;;;;7.97;4.83;;;8.10;99.90;;;;;;5046171;28;20115;-67
2023/04/03 04:30:20;;;;;;;5.07;4.00;;;8.10;99.90;;;;;;5043132;28;20021;-67
2023/04/03 04:32:46;;;;;;;5.20;4.17;;;8.10;99.90;;;;;;5047105;28;20500;-64
2023/04/03 04:35:12;;;;;;;5.40;4.15;;;8.10;99.90;;;;;;5045947;28;20396;-65
2023/04/03 04:37:38;;;;;;;5.60;4.43;;;8.10;99.90;;;;;;5043728;28;20030;-65
2023/04/03 04:40:04;;;;;;;7.60;4.20;;;8.10;99.90;;;;;;5042724;28;20279;-64
2023/04/03 04:42:29;;;;;;;5.57;4.28;;;8.00;99.90;;;;;;5044142;28;20493;-66
2023/04/03 04:44:55;;;;;;;8.17;5.30;;;8.10;99.90;;;;;;5040686;28;20071;-66
2023/04/03 04:47:20;;;;;;;7.50;4.57;;;8.10;99.90;;;;;;5045866;28;20032;-65
2023/04/03 04:49:47;;;;;;;6.37;4.43;;;8.10;99.90;;;;;;5046270;28;20789;-64
2023/04/03 04:52:13;;;;;;;6.38;4.50;;;8.20;99.90;;;;;;5043319;28;20029;-66
2023/04/03 04:54:38;;;;;;;6.40;4.25;;;8.20;99.90;;;;;;5036652;28;20032;-65
2023/04/03 04:57:04;;;;;;;6.20;4.77;;;8.20;99.90;;;;;;5035945;28;20048;-66
2023/04/03 04:59:30;;;;;;;5.43;4.50;;;8.20;99.90;;;;;;5043779;28;20106;-65
2023/04/03 05:01:55;;;;;;;6.00;4.07;;;8.20;99.90;;;;;;5046848;28;20419;-65
2023/04/03 05:04:21;;;;;;;7.77;4.97;;;8.20;99.90;;;;;;5048174;28;20044;-65
2023/04/03 05:06:46;;;;;;;5.83;4.47;;;8.30;99.90;;;;;;5043390;28;20166;-66
2023/04/03 05:09:12;;;;;;;8.33;5.60;;;8.30;99.90;;;;;;5038835;28;20308;-66
2023/04/03 05:11:38;;;;;;;5.07;3.90;;;8.30;99.90;;;;;;5052735;28;20027;-66
2023/04/03 05:14:06;;;;;;;5.30;4.00;;;8.30;99.90;;;;;;5045691;28;20382;-66
2023/04/03 05:16:32;;;;;;;7.22;5.00;;;8.30;99.90;;;;;;5041512;28;20017;-65
2023/04/03 05:18:57;;;;;;;6.95;4.88;;;8.30;99.90;;;;;;5048344;28;20032;-65
2023/04/03 05:21:25;;;;;;;9.60;4.20;;;8.30;99.90;;;;;;5048962;28;20032;-66
2023/04/03 05:23:51;;;;;;;5.38;4.28;;;8.30;99.90;;;;;;5033713;28;20170;-67
2023/04/03 05:26:17;;;;;;;5.63;3.97;;;8.20;99.90;;;;;;5034280;28;20578;-67
2023/04/03 05:28:43;;;;;;;8.63;3.97;;;8.20;99.90;;;;;;5052222;28;20531;-67
2023/04/03 05:31:08;;;;;;;5.00;4.07;;;8.20;99.90;;;;;;5051464;28;20029;-66
2023/04/03 05:33:34;;;;;;;4.53;3.83;;;8.20;99.90;;;;;;5042257;28;20675;-67
2023/04/03 05:36:06;;;;;;;5.17;4.40;;;8.20;99.90;;;;;;5043747;28;20041;-65
2023/04/03 05:38:32;;;;;;;6.68;4.57;;;8.20;99.90;;;;;;5035317;28;20021;-64
2023/04/03 05:40:58;;;;;;;6.13;5.05;;;8.20;99.90;;;;;;5047426;28;20046;-65
2023/04/03 05:43:24;;;;;;;6.68;5.05;;;8.20;99.90;;;;;;5047096;28;20077;-65
2023/04/03 05:45:50;;;;;;;6.20;4.53;;;8.20;99.90;;;;;;5034515;28;20182;-66
2023/04/03 05:48:16;;;;;;;5.50;4.03;;;8.30;99.90;;;;;;5035405;28;20509;-65
2023/04/03 05:50:42;;;;;;;7.70;4.33;;;8.40;99.90;;;;;;5049871;28;20028;-65
2023/04/03 05:53:17;;;;;;;6.10;4.70;;;8.40;99.90;;;;;;5045083;28;20554;-65
2023/04/03 05:55:42;;;;;;;5.90;4.72;;;8.40;99.90;;;;;;5041856;28;20319;-66
2023/04/03 05:58:08;;;;;;;5.13;4.27;;;8.40;99.90;;;;;;5044785;28;20579;-66
2023/04/03 06:00:34;;;;;;;6.43;4.37;;;8.40;99.90;;;;;;5051714;28;20031;-66
2023/04/03 06:02:59;;;;;;;4.87;4.17;;;8.40;99.90;;;;;;5040541;28;20110;-66
2023/04/03 06:05:25;;;;;;;5.57;4.93;;;8.50;99.90;;;;;;5046704;28;20061;-68
2023/04/03 06:07:51;;;;;;;7.07;4.80;;;8.60;99.90;;;;;;5041513;28;20412;-67
2023/04/03 06:10:17;;;;;;;5.40;4.07;;;8.60;99.90;;;;;;5043532;28;20025;-68
2023/04/03 06:12:43;;;;;;;7.88;4.75;;;8.50;99.90;;;;;;5045616;28;20033;-68
2023/04/03 06:15:10;;;;;;;8.37;4.50;;;8.60;99.90;;;;;;5043257;28;20040;-66
2023/04/03 06:17:37;;;;;;;7.25;5.05;;;8.50;99.90;;;;;;5041340;28;20036;-67
2023/04/03 06:20:03;;;;;;;8.00;5.15;;;8.60;99.90;;;;;;5033431;28;20104;-68
2023/04/03 06:22:29;;;;;;;7.55;4.95;;;8.60;99.90;;;;;;5037397;28;20695;-67
2023/04/03 06:24:56;;;;;;;5.90;4.65;;;8.60;99.90;;;;;;5040267;28;20041;-67
2023/04/03 06:27:21;;;;;;;13.50;5.45;;;8.60;99.90;;;;;;5033680;28;20044;-67
2023/04/03 06:29:48;;;;;;;10.23;4.78;;;8.70;99.90;;;;;;5041963;28;20514;-66
2023/04/03 06:32:14;;;;;;;6.47;5.47;;;8.60;99.90;;;;;;5041385;28;20082;-66
2023/04/03 06:34:41;;;;;;;6.35;4.85;;;8.60;99.90;;;;;;5040898;28;20029;-67
2023/04/03 06:37:10;;;;;;;;;;;8.70;99.90;;;;;;5033045;28;20647;-67
2023/04/03 06:39:36;;;;;;;6.90;5.65;;;8.70;99.90;;;;;;5038807;28;19923;-66
2023/04/03 06:42:01;;;;;;;10.87;7.47;;;8.70;99.90;;;;;;5046592;28;20025;-67
2023/04/03 06:44:27;;;;;;;9.97;5.90;;;8.70;99.90;;;;;;5042003;28;20582;-67
2023/04/03 06:46:54;;;;;;;7.80;5.43;;;8.70;99.90;;;;;;5034503;28;20033;-66
2023/04/03 06:49:19;;;;;;;13.52;6.03;;;8.70;99.90;;;;;;5044208;28;20044;-67
2023/04/03 06:51:45;;;;;;;9.70;6.37;;;8.80;99.90;;;;;;5036782;28;20025;-67
2023/04/03 06:54:12;;;;;;;6.93;4.80;;;8.70;99.90;;;;;;5043178;28;20029;-69
2023/04/03 06:56:38;;;;;;;8.18;6.10;;;8.70;99.90;;;;;;5052109;28;20094;-67
2023/04/03 06:59:03;;;;;;;11.10;5.70;;;8.70;99.90;;;;;;5039641;28;20025;-67
2023/04/03 07:01:29;;;;;;;7.70;5.88;;;8.80;99.90;;;;;;5037554;28;20038;-66
2023/04/03 07:03:55;;;;;;;9.18;6.45;;;8.90;99.90;;;;;;5044668;28;20064;-66
2023/04/03 07:06:21;;;;;;;10.52;5.60;;;8.90;99.90;;;;;;5038866;28;20063;-67
2023/04/03 07:08:48;;;;;;;10.55;5.50;;;8.90;99.90;;;;;;5037738;28;20038;-66
2023/04/03 07:11:14;;;;;;;12.48;7.63;;;8.90;99.90;;;;;;5040864;28;20108;-67
2023/04/03 07:13:40;;;;;;;15.27;10.38;;;9.00;99.90;;;;;;5040095;28;20155;-66
2023/04/03 07:16:06;;;;;;;20.17;12.43;;;9.10;99.90;;;;;;5036100;28;20036;-66
2023/04/03 07:18:33;;;;;;;16.73;10.70;;;9.10;99.90;;;;;;5039107;28;20028;-67
2023/04/03 07:20:58;;;;;;;18.20;10.35;;;9.20;99.90;;;;;;5038930;28;20040;-67
2023/04/03 07:23:24;;;;;;;15.97;10.60;;;9.10;99.90;;;;;;5038007;28;20037;-66
2023/04/03 07:25:51;;;;;;;12.93;8.87;;;9.10;99.90;;;;;;5041228;28;20021;-67
2023/04/03 07:28:19;;;;;;;13.90;9.77;;;9.10;99.90;;;;;;5037240;28;20284;-67
2023/04/03 07:30:53;;;;;;;16.00;10.20;;;9.00;99.90;;;;;;5042515;28;20044;-67
2023/04/03 07:33:21;;;;;;;13.05;9.60;;;9.10;99.90;;;;;;5039612;28;20533;-66
2023/04/03 07:35:47;;;;;;;14.02;9.63;;;9.00;99.90;;;;;;5039420;28;20038;-67
2023/04/03 07:38:13;;;;;;;12.73;9.20;;;9.10;99.90;;;;;;5038042;28;20025;-66
2023/04/03 07:40:39;;;;;;;16.70;11.63;;;9.00;99.90;;;;;;5041406;28;20041;-67
2023/04/03 07:43:05;;;;;;;;;;;9.20;99.90;;;;;;5034590;28;20049;-65
2023/04/03 07:45:34;;;;;;;13.48;9.35;;;9.20;99.90;;;;;;5042435;28;19916;-68
2023/04/03 07:48:00;;;;;;;17.27;10.85;;;9.10;99.90;;;;;;5041498;28;20040;-67
2023/04/03 07:50:27;;;;;;;15.43;11.05;;;9.10;99.90;;;;;;5040008;28;20029;-65
2023/04/03 07:52:54;;;;;;;16.75;12.07;;;9.20;99.90;;;;;;5036110;28;20021;-65
2023/04/03 07:55:20;;;;;;;19.63;12.20;;;9.30;99.90;;;;;;5039821;28;20120;-65
2023/04/03 07:57:45;;;;;;;19.07;12.63;;;9.30;99.90;;;;;;5046634;28;20105;-65
2023/04/03 08:00:12;;;;;;;16.53;11.70;;;9.20;99.90;;;;;;5051673;28;20029;-65
2023/04/03 08:02:37;;;;;;;20.40;12.55;;;9.10;99.90;;;;;;5050708;28;20021;-65
2023/04/03 08:05:03;;;;;;;16.90;12.30;;;9.20;99.90;;;;;;5051509;28;20377;-65
2023/04/03 08:07:29;;;;;;;17.27;11.85;;;9.20;99.90;;;;;;5051968;28;20039;-67
2023/04/03 08:09:55;;;;;;;19.97;12.43;;;9.30;99.90;;;;;;5055585;28;20032;-67
2023/04/03 08:12:20;;;;;;;16.40;12.03;;;9.40;99.90;;;;;;5055113;28;20048;-67
2023/04/03 08:14:46;;;;;;;15.97;11.30;;;9.30;99.90;;;;;;5053494;28;20025;-67
2023/04/03 08:17:12;;;;;;;19.13;12.50;;;9.10;99.90;;;;;;5054720;28;20056;-67
2023/04/03 08:19:39;;;;;;;20.95;13.25;;;9.20;99.90;;;;;;5055771;28;21492;-66
2023/04/03 08:22:05;;;;;;;22.23;11.45;;;9.10;99.90;;;;;;5057121;28;20037;-67
2023/04/03 08:24:31;;;;;;;20.77;11.38;;;9.30;99.90;;;;;;5054151;28;20497;-66
2023/04/03 08:26:57;;;;;;;27.25;12.02;;;9.60;99.90;;;;;;5054543;28;20028;-66
2023/04/03 08:29:23;;;;;;;13.57;10.10;;;10.20;99.90;;;;;;5055218;28;20102;-67
2023/04/03 08:31:50;;;;;;;;;;;9.60;99.90;;;;;;5056070;28;20100;-66
2023/04/03 08:34:16;;;;;;;14.18;9.95;;;9.60;99.90;;;;;;5054247;28;19983;-67
2023/04/03 08:36:42;;;;;;;11.68;8.93;;;9.50;99.90;;;;;;5054684;28;20401;-66
2023/04/03 08:39:08;;;;;;;13.10;9.73;;;9.40;99.90;;;;;;5054977;28;20528;-66
2023/04/03 08:41:35;;;;;;;16.20;10.10;;;9.50;99.90;;;;;;5052393;28;20127;-67
2023/04/03 08:44:03;;;;;;;13.70;10.25;;;9.70;99.90;;;;;;5054287;28;20542;-67
2023/04/03 08:46:57;;;;;;;18.23;10.35;;;9.40;99.90;;;;;;5048238;28;20166;-67
2023/04/03 08:49:46;;;;;;;15.35;10.18;;;9.40;99.90;;;;;;5051566;28;20452;-66
2023/04/03 08:52:16;;;;;;;17.25;10.70;;;9.40;99.90;;;;;;5055059;28;20523;-65
2023/04/03 08:54:56;;;;;;;16.58;10.02;;;9.90;99.90;;;;;;5051400;28;20067;-67
2023/04/03 08:57:48;;;;;;;18.70;10.55;;;10.20;99.90;;;;;;5054014;28;20043;-64
2023/04/03 09:00:22;;;;;;;12.95;8.98;;;10.20;99.90;;;;;;5055608;28;20029;-66
2023/04/03 09:02:50;;;;;;;11.90;9.20;;;10.10;99.90;;;;;;5053813;28;20037;-66
2023/04/03 09:05:18;;;;;;;12.10;8.10;;;10.00;99.90;;;;;;5054025;28;20037;-65
2023/04/03 09:07:47;;;;;;;14.32;9.35;;;10.00;99.90;;;;;;5053620;28;20029;-66
2023/04/03 09:10:14;;;;;;;13.55;9.77;;;10.00;99.90;;;;;;5052503;28;20033;-66
2023/04/03 09:12:52;;;;;;;13.88;9.48;;;10.10;99.90;;;;;;5053831;28;20079;-65
2023/04/03 09:15:24;;;;;;;9.85;7.53;;;9.90;99.90;;;;;;5055128;28;20467;-65
2023/04/03 09:18:02;;;;;;;12.95;8.23;;;9.90;99.90;;;;;;5054521;28;20037;-66
2023/04/03 09:21:01;;;;;;;15.13;8.73;;;10.10;99.90;;;;;;5052899;28;20412;-66
2023/04/03 09:23:38;;;;;;;15.20;8.18;;;10.20;99.90;;;;;;5050736;28;20037;-66
2023/04/03 09:26:09;;;;;;;12.25;8.35;;;10.20;99.90;;;;;;5053008;28;20035;-65
2023/04/03 09:28:38;;;;;;;12.63;8.00;;;10.10;99.90;;;;;;5052409;28;20029;-66
2023/04/03 09:31:32;;;;;;;14.00;8.15;;;10.10;99.90;;;;;;5055485;28;20078;-65
2023/04/03 09:34:46;;;;;;;10.02;7.57;;;10.00;99.90;;;;;;5051300;28;20059;-65
2023/04/03 09:37:36;;;;;;;11.85;7.80;;;10.20;99.90;;;;;;5031171;28;20053;-66
2023/04/03 09:40:04;;;;;;;10.27;7.22;;;10.10;99.90;;;;;;5033768;28;20128;-66
2023/04/03 09:42:31;;;;;;;12.23;7.78;;;10.00;99.90;;;;;;5047107;28;20527;-66
2023/04/03 09:45:03;;;;;;;10.00;7.85;;;10.10;99.90;;;;;;5054553;28;20048;-66
2023/04/03 09:47:29;;;;;;;9.63;7.47;;;10.10;99.90;;;;;;5050519;28;20059;-67
2023/04/03 09:50:20;;;;;;;11.73;8.15;;;10.20;99.90;;;;;;5055621;28;20033;-66
2023/04/03 09:52:48;;;;;;;9.05;7.50;;;10.20;99.90;;;;;;5053699;28;20029;-67
2023/04/03 09:55:14;;;;;;;10.25;7.07;;;10.20;99.90;;;;;;5050279;28;20037;-66
2023/04/03 09:57:40;;;;;;;10.77;8.67;;;10.20;99.90;;;;;;5055231;28;20051;-67
2023/04/03 10:00:19;;;;;;;14.90;8.48;;;10.30;99.90;;;;;;5054830;28;20454;-67
2023/04/03 10:02:50;;;;;;;12.60;8.20;;;10.50;99.90;;;;;;5053522;28;20035;-64
2023/04/03 10:05:34;;;;;;;14.48;8.38;;;10.20;99.90;;;;;;5054122;28;20035;-66
2023/04/03 10:08:28;;;;;;;11.82;8.82;;;10.00;99.90;;;;;;5054208;28;20040;-65
2023/04/03 10:11:12;;;;;;;15.70;10.43;;;9.90;99.90;;;;;;5053579;28;20036;-66
2023/04/03 10:13:56;;;;;;;10.07;7.80;;;9.80;99.90;;;;;;5051818;28;20072;-67
2023/04/03 10:16:52;;;;;;;13.50;9.15;;;10.00;99.90;;;;;;5053889;28;20117;-65
2023/04/03 10:19:35;;;;;;;12.85;8.82;;;9.90;99.90;;;;;;5050056;28;20790;-65
2023/04/03 10:22:10;;;;;;;15.68;9.15;;;9.80;99.90;;;;;;5052160;28;20117;-65
2023/04/03 10:25:00;;;;;;;12.73;9.40;;;9.70;99.90;;;;;;5051215;28;20029;-65
2023/04/03 10:27:37;;;;;;;13.57;8.77;;;9.70;99.90;;;;;;5054373;28;20025;-65
2023/04/03 10:30:15;;;;;;;;;;;9.80;99.90;;;;;;5053839;28;20112;-65
2023/04/03 10:32:58;;;;;;;12.52;9.18;;;9.70;99.90;;;;;;5052848;28;19919;-66
2023/04/03 10:35:30;;;;;;;11.65;8.55;;;9.80;99.90;;;;;;5051217;28;20152;-66
2023/04/03 10:38:02;;;;;;;11.77;8.68;;;10.00;99.90;;;;;;5050540;28;20035;-66
2023/04/03 10:40:47;;;;;;;10.35;7.93;;;10.00;99.90;;;;;;5051073;28;20099;-66
2023/04/03 10:43:49;;;;;;;13.93;8.27;;;9.90;99.90;;;;;;5051611;28;20812;-65
2023/04/03 10:46:49;;;;;;;12.30;7.13;;;9.90;99.90;;;;;;5050645;28;20103;-66
2023/04/03 10:49:50;;;;;;;12.02;7.10;;;9.80;99.90;;;;;;5026387;28;20036;-66
2023/04/03 10:52:34;;;;;;;8.75;7.05;;;9.70;99.90;;;;;;5043915;28;20036;-66
2023/04/03 10:55:26;;;;;;;9.75;7.32;;;9.50;99.90;;;;;;5039354;28;20041;-67
2023/04/03 10:57:56;;;;;;;8.85;6.72;;;9.60;99.90;;;;;;5041718;28;20033;-67
2023/04/03 11:00:28;;;;;;;9.07;6.97;;;9.40;99.90;;;;;;5039726;28;20792;-66
2023/04/03 11:03:06;;;;;;;11.35;8.45;;;9.50;99.90;;;;;;5041667;28;20063;-66
2023/04/03 11:05:36;;;;;;;;;;;9.40;99.90;;;;;;5040762;28;20544;-67
2023/04/03 11:08:26;;;;;;;8.52;6.97;;;9.30;99.90;;;;;;5051872;28;19916;-66
2023/04/03 11:10:53;;;;;;;15.48;7.85;;;9.30;99.90;;;;;;5038565;28;20037;-66
2023/04/03 11:13:30;;;;;;;11.65;8.48;;;9.30;99.90;;;;;;5051379;28;20025;-67
2023/04/03 11:15:58;;;;;;;11.32;8.25;;;9.30;99.90;;;;;;5051172;28;20024;-66
2023/04/03 11:18:42;;;;;;;10.32;7.82;;;9.10;99.90;;;;;;5053514;28;20029;-66
2023/04/03 11:21:31;;;;;;;11.48;7.10;;;9.20;99.90;;;;;;5053551;28;20021;-65
2023/04/03 11:23:59;;;;;;;10.63;7.65;;;9.40;99.90;;;;;;5049789;28;20408;-66
2023/04/03 11:26:32;;;;;;;15.20;8.07;;;9.30;99.90;;;;;;5050700;28;20039;-66
2023/04/03 11:29:06;;;;;;;11.32;7.97;;;9.40;99.90;;;;;;5052837;28;20043;-66
2023/04/03 11:32:02;;;;;;;12.40;7.57;;;9.30;99.90;;;;;;5051631;28;20072;-67
2023/04/03 11:34:48;;;;;;;12.57;7.10;;;9.20;99.90;;;;;;5053016;28;20389;-66
2023/04/03 11:37:28;;;;;;;10.75;7.88;;;9.20;99.90;;;;;;5052069;28;20027;-66
2023/04/03 11:40:03;;;;;;;9.13;6.75;;;9.00;99.90;;;;;;5051897;28;20046;-65
2023/04/03 11:42:38;;;;;;;11.60;7.55;;;9.10;99.90;;;;;;5051865;28;20057;-65
2023/04/03 11:45:26;;;;;;;10.77;7.63;;;9.40;99.90;;;;;;5055583;28;20049;-65
2023/04/03 11:48:20;;;;;;;11.70;8.07;;;9.50;99.90;;;;;;5057717;28;20037;-65
2023/04/03 11:50:47;;;;;;;11.85;7.85;;;9.70;99.90;;;;;;5037306;28;20044;-66
2023/04/03 11:53:12;;;;;;;10.55;7.55;;;9.60;99.90;;;;;;5056879;28;21109;-66
2023/04/03 11:55:49;;;;;;;11.17;7.70;;;9.40;99.90;;;;;;5054888;28;20072;-66
2023/04/03 11:58:18;;;;;;;9.32;7.43;;;9.50;99.90;;;;;;5054350;28;20056;-65
2023/04/03 12:00:46;;;;;;;10.80;7.43;;;9.50;99.90;;;;;;5055928;28;20033;-65
2023/04/03 12:03:27;;;;;;;10.95;8.02;;;9.50;99.90;;;;;;5055949;28;20428;-66
2023/04/03 12:06:16;;;;;;;11.00;7.07;;;9.50;99.90;;;;;;5054530;28;20029;-67
2023/04/03 12:08:42;;;;;;;10.35;6.63;;;9.60;99.90;;;;;;5055460;28;20029;-67
2023/04/03 12:11:10;;;;;;;16.40;8.40;;;9.70;99.90;;;;;;5056135;28;20456;-68
2023/04/03 12:13:38;;;;;;;11.88;7.82;;;9.70;99.90;;;;;;5054804;28;20024;-66
2023/04/03 12:16:06;;;;;;;14.82;8.68;;;9.70;99.90;;;;;;5057155;28;20102;-66
2023/04/03 12:18:44;;;;;;;11.43;7.70;;;9.60;99.90;;;;;;5054045;28;20032;-65
2023/04/03 12:21:13;;;;;;;10.23;7.85;;;9.60;99.90;;;;;;5052651;28;20048;-66
2023/04/03 12:24:08;;;;;;;12.88;7.65;;;9.40;99.90;;;;;;5055689;28;20033;-65
2023/04/03 12:27:07;;;;;;;11.38;7.30;;;9.30;99.90;;;;;;5053243;28;20025;-65
2023/04/03 12:29:33;;;;;;;8.82;7.32;;;9.50;99.90;;;;;;5054950;28;20083;-65
2023/04/03 12:32:18;;;;;;;9.85;7.10;;;9.40;99.90;;;;;;5056641;28;20029;-65
2023/04/03 12:35:08;;;;;;;13.73;7.25;;;9.50;99.90;;;;;;5056207;28;20115;-66
2023/04/03 12:37:49;;;;;;;9.90;7.40;;;9.60;99.90;;;;;;5054868;28;20028;-65
2023/04/03 12:40:37;;;;;;;11.32;7.85;;;9.50;99.90;;;;;;5054849;28;20051;-65
2023/04/03 12:43:41;;;;;;;11.82;7.32;;;9.60;99.90;;;;;;5055517;28;20040;-65
2023/04/03 12:46:06;;;;;;;14.77;7.97;;;9.60;99.90;;;;;;5055654;28;20377;-65
2023/04/03 12:48:46;;;;;;;10.00;7.70;;;9.40;99.90;;;;;;5056198;28;20052;-65
2023/04/03 12:51:29;;;;;;;14.38;7.30;;;9.60;99.90;;;;;;5056412;28;20029;-65
2023/04/03 12:54:12;;;;;;;9.45;6.68;;;9.60;99.90;;;;;;5054968;28;20178;-65
2023/04/03 12:56:39;;;;;;;12.25;7.90;;;9.60;99.90;;;;;;5055031;28;20667;-66
2023/04/03 12:59:21;;;;;;;10.77;7.70;;;9.70;99.90;;;;;;5054847;28;20037;-66
2023/04/03 13:01:58;;;;;;;10.35;6.75;;;9.70;99.90;;;;;;5054912;28;20388;-67
2023/04/03 13:04:24;;;;;;;13.25;7.50;;;9.60;99.90;;;;;;5054456;28;20032;-67
2023/04/03 13:06:51;;;;;;;9.65;7.00;;;9.70;99.90;;;;;;5056110;28;20032;-68
2023/04/03 13:09:28;;;;;;;9.90;6.95;;;9.80;99.90;;;;;;5054179;28;20546;-68